createdAt,value
2019-01-12T00:00:41.137Z,-2.30
2019-01-12T00:03:12.214Z,-2.30
2019-01-12T00:05:45.119Z,-2.30
2019-01-12T00:08:17.787Z,-2.30
2019-01-12T00:10:48.421Z,-2.20
2019-01-12T00:13:19.129Z,-2.30
2019-01-12T00:15:49.689Z,-2.30
2019-01-12T00:18:21.564Z,-2.30
2019-01-12T00:20:53.536Z,-2.30
2019-01-12T00:23:24.286Z,-2.30
2019-01-12T00:25:54.920Z,-2.30
2019-01-12T00:28:26.118Z,-2.00
2019-01-12T00:30:57.841Z,-2.30
2019-01-12T00:33:28.907Z,-2.20
2019-01-12T00:35:59.471Z,-2.20
2019-01-12T00:38:30.075Z,-2.20
2019-01-12T00:41:01.411Z,-2.10
2019-01-12T00:43:35.013Z,-2.30
2019-01-12T00:46:05.857Z,-2.30
2019-01-12T00:48:37.922Z,-2.40
2019-01-12T00:51:09.322Z,-2.10
2019-01-12T00:53:39.923Z,-2.30
2019-01-12T00:56:10.694Z,-2.30
2019-01-12T00:58:41.826Z,-2.30
2019-01-12T01:01:12.746Z,-2.30
2019-01-12T01:03:43.706Z,-2.30
2019-01-12T01:06:14.915Z,-2.30
2019-01-12T01:08:46.935Z,-2.30
2019-01-12T01:11:18.631Z,-2.30
2019-01-12T01:13:51.853Z,-2.30
2019-01-12T01:16:22.956Z,-2.30
2019-01-12T01:18:57.976Z,-2.30
2019-01-12T01:21:28.916Z,-2.30
2019-01-12T01:24:02.972Z,-2.30
2019-01-12T01:26:33.638Z,-2.30
2019-01-12T01:29:04.536Z,-2.30
2019-01-12T01:31:39.972Z,-2.20
2019-01-12T01:34:10.520Z,-2.30
2019-01-12T01:36:41.775Z,-2.20
2019-01-12T01:39:12.404Z,-2.20
2019-01-12T01:41:42.937Z,-2.20
2019-01-12T01:44:14.092Z,-2.20
2019-01-12T01:46:44.733Z,-2.20
2019-01-12T01:49:15.832Z,-2.20
2019-01-12T01:51:46.502Z,-2.20
2019-01-12T01:54:17.298Z,-2.10
2019-01-12T01:56:51.406Z,-2.20
2019-01-12T01:59:23.001Z,-2.20
2019-01-12T02:01:53.665Z,-2.20
2019-01-12T02:04:24.660Z,-2.20
2019-01-12T02:06:55.938Z,-2.20
2019-01-12T02:09:26.908Z,-2.20
2019-01-12T02:11:58.054Z,-2.20
2019-01-12T02:14:29.695Z,-2.10
2019-01-12T02:17:00.599Z,-2.10
2019-01-12T02:19:32.106Z,-2.10
2019-01-12T02:22:03.425Z,-2.10
2019-01-12T02:24:37.276Z,-2.10
2019-01-12T02:27:08.499Z,-2.10
2019-01-12T02:29:39.723Z,-2.10
2019-01-12T02:32:10.276Z,-2.10
2019-01-12T02:34:41.502Z,-2.10
2019-01-12T02:37:12.338Z,-2.10
2019-01-12T02:39:43.804Z,-2.10
2019-01-12T02:42:15.622Z,-2.10
2019-01-12T02:44:46.975Z,-2.10
2019-01-12T02:47:17.989Z,-2.10
2019-01-12T02:49:49.129Z,-2.10
2019-01-12T02:52:20.040Z,-2.20
2019-01-12T02:54:50.517Z,-2.00
2019-01-12T02:57:21.528Z,-2.00
2019-01-12T02:59:54.019Z,-2.00
2019-01-12T03:02:24.662Z,-2.00
2019-01-12T03:04:55.431Z,-2.10
2019-01-12T03:07:25.885Z,-2.00
2019-01-12T03:09:56.458Z,-2.10
2019-01-12T03:12:27.012Z,-2.10
2019-01-12T03:14:57.661Z,-2.00
2019-01-12T03:17:29.100Z,-2.00
2019-01-12T03:20:01.189Z,-1.80
2019-01-12T03:22:32.237Z,-2.00
2019-01-12T03:25:03.331Z,-2.00
2019-01-12T03:27:34.044Z,-2.00
2019-01-12T03:30:13.487Z,-2.00
2019-01-12T03:32:46.464Z,-1.90
2019-01-12T03:35:17.619Z,-1.90
2019-01-12T03:37:48.439Z,-1.90
2019-01-12T03:40:21.497Z,-1.90
2019-01-12T03:42:52.885Z,-1.90
2019-01-12T03:45:25.677Z,-1.90
2019-01-12T03:47:58.279Z,-1.90
2019-01-12T03:50:32.670Z,-1.70
2019-01-12T03:53:08.154Z,-1.80
2019-01-12T03:55:40.188Z,-1.90
2019-01-12T03:58:11.871Z,-1.80
2019-01-12T04:00:44.305Z,-1.80
2019-01-12T04:03:15.635Z,-1.80
2019-01-12T04:05:46.680Z,-1.70
2019-01-12T04:08:17.385Z,-1.70
2019-01-12T04:10:47.980Z,-1.70
2019-01-12T04:13:18.720Z,-1.70
2019-01-12T04:15:49.577Z,-1.70
2019-01-12T04:18:28.844Z,-1.70
2019-01-12T04:21:08.122Z,-1.70
2019-01-12T04:23:41.917Z,-1.60
2019-01-12T04:26:14.552Z,-1.60
2019-01-12T04:28:46.021Z,-1.50
2019-01-12T04:31:16.897Z,-1.60
2019-01-12T04:33:48.694Z,-1.60
2019-01-12T04:36:22.458Z,-1.60
2019-01-12T04:38:54.871Z,-1.60
2019-01-12T04:41:26.596Z,-1.60
2019-01-12T04:43:58.259Z,-1.70
2019-01-12T04:46:28.874Z,-1.70
2019-01-12T04:48:59.681Z,-1.60
2019-01-12T04:51:30.274Z,-1.60
2019-01-12T04:54:01.146Z,-1.60
2019-01-12T04:56:33.432Z,-1.50
2019-01-12T04:59:04.948Z,-1.60
2019-01-12T05:01:35.501Z,-1.60
2019-01-12T05:04:06.338Z,-1.60
2019-01-12T05:06:37.367Z,-1.60
2019-01-12T05:09:08.743Z,-1.60
2019-01-12T05:11:39.250Z,-1.60
2019-01-12T05:14:09.762Z,-1.50
2019-01-12T05:16:42.676Z,-1.50
2019-01-12T05:19:13.349Z,-1.50
2019-01-12T05:21:44.834Z,-1.50
2019-01-12T05:24:15.844Z,-1.40
2019-01-12T05:26:47.347Z,-1.40
2019-01-12T05:29:17.894Z,-1.40
2019-01-12T05:31:51.410Z,-1.50
2019-01-12T05:34:22.388Z,-1.50
2019-01-12T05:36:53.303Z,-1.30
2019-01-12T05:39:24.433Z,-1.40
2019-01-12T05:41:55.620Z,-1.40
2019-01-12T05:44:26.346Z,-1.40
2019-01-12T05:46:57.315Z,-1.40
2019-01-12T05:49:27.822Z,-1.40
2019-01-12T05:51:59.300Z,-1.30
2019-01-12T05:54:29.809Z,-1.40
2019-01-12T05:57:00.784Z,-1.30
2019-01-12T05:59:31.771Z,-1.30
2019-01-12T06:02:02.749Z,-1.30
2019-01-12T06:04:33.542Z,-1.30
2019-01-12T06:07:05.808Z,-1.30
2019-01-12T06:09:36.415Z,-1.40
2019-01-12T06:12:07.345Z,-1.40
2019-01-12T06:14:37.899Z,-1.40
2019-01-12T06:17:11.772Z,-1.40
2019-01-12T06:19:42.383Z,-1.40
2019-01-12T06:22:19.404Z,-1.20
2019-01-12T06:24:53.679Z,-1.30
2019-01-12T06:27:24.354Z,-1.20
2019-01-12T06:29:55.331Z,-1.10
2019-01-12T06:32:26.903Z,-1.20
2019-01-12T06:34:58.147Z,-1.10
2019-01-12T06:37:29.198Z,-1.00
2019-01-12T06:39:59.718Z,-1.00
2019-01-12T06:42:30.540Z,-1.00
2019-01-12T06:45:06.011Z,-1.10
2019-01-12T06:47:37.012Z,-1.10
2019-01-12T06:50:12.219Z,-1.00
2019-01-12T06:52:43.100Z,-1.20
2019-01-12T06:55:13.773Z,-1.10
2019-01-12T06:57:44.868Z,-1.10
2019-01-12T07:00:19.555Z,-1.00
2019-01-12T07:02:54.883Z,-1.00
2019-01-12T07:05:25.458Z,-0.90
2019-01-12T07:07:57.303Z,-0.90
2019-01-12T07:10:28.328Z,-0.80
2019-01-12T07:12:59.518Z,-0.80
2019-01-12T07:15:30.125Z,-0.40
2019-01-12T07:18:01.105Z,-0.60
2019-01-12T07:20:32.696Z,-0.90
2019-01-12T07:23:06.754Z,-0.60
2019-01-12T07:25:37.154Z,-0.70
2019-01-12T07:28:08.371Z,-0.60
2019-01-12T07:30:39.270Z,-0.60
2019-01-12T07:33:12.973Z,-0.60
2019-01-12T07:35:43.883Z,-0.60
2019-01-12T07:38:17.054Z,-0.60
2019-01-12T07:40:47.909Z,-0.60
2019-01-12T07:43:18.561Z,-0.20
2019-01-12T07:45:49.168Z,-0.40
2019-01-12T07:48:19.922Z,-0.50
2019-01-12T07:50:50.907Z,-0.50
2019-01-12T07:53:21.752Z,-0.40
2019-01-12T07:55:52.375Z,-0.50
2019-01-12T07:58:23.031Z,-0.60
2019-01-12T08:00:53.581Z,-0.80
2019-01-12T08:03:27.654Z,-0.80
2019-01-12T08:05:58.329Z,-0.80
2019-01-12T08:08:28.925Z,-0.80
2019-01-12T08:10:59.754Z,-0.80
2019-01-12T08:13:32.016Z,-0.80
2019-01-12T08:16:02.755Z,-0.90
2019-01-12T08:18:34.967Z,-0.70
2019-01-12T08:21:05.870Z,-0.70
2019-01-12T08:23:37.264Z,-0.70
2019-01-12T08:26:07.898Z,-0.70
2019-01-12T08:28:39.378Z,-0.70
2019-01-12T08:31:10.391Z,-0.50
2019-01-12T08:33:40.967Z,-0.50
2019-01-12T08:36:11.510Z,-0.50
2019-01-12T08:38:42.114Z,-0.20
2019-01-12T08:41:12.641Z,-0.30
2019-01-12T08:43:43.040Z,-0.10
2019-01-12T08:46:13.519Z,-0.20
2019-01-12T08:48:44.057Z,-0.20
2019-01-12T08:51:14.623Z,-0.10
2019-01-12T08:53:45.098Z,-0.20
2019-01-12T08:56:16.604Z,-0.10
2019-01-12T08:58:47.083Z,0.00
2019-01-12T09:01:17.682Z,0.30
2019-01-12T09:03:48.251Z,0.20
2019-01-12T09:06:22.298Z,0.20
2019-01-12T09:08:52.885Z,0.30
2019-01-12T09:11:23.637Z,0.30
2019-01-12T09:13:54.536Z,0.30
2019-01-12T09:16:25.060Z,0.30
2019-01-12T09:18:55.745Z,0.50
2019-01-12T09:21:26.349Z,0.50
2019-01-12T09:23:58.601Z,0.50
2019-01-12T09:26:30.296Z,0.50
2019-01-12T09:29:01.530Z,0.50
2019-01-12T09:31:33.222Z,0.60
2019-01-12T09:34:03.880Z,0.60
2019-01-12T09:36:34.439Z,0.70
2019-01-12T09:39:07.619Z,0.70
2019-01-12T09:41:38.304Z,0.80
2019-01-12T09:44:09.030Z,0.80
2019-01-12T09:46:39.493Z,0.90
2019-01-12T09:49:10.139Z,1.00
2019-01-12T09:51:42.324Z,1.00
2019-01-12T09:54:13.302Z,1.00
2019-01-12T09:56:43.804Z,1.10
2019-01-12T09:59:15.043Z,1.20
2019-01-12T10:01:45.534Z,1.20
2019-01-12T10:04:15.959Z,1.20
2019-01-12T10:06:46.450Z,1.40
2019-01-12T10:09:16.976Z,1.20
2019-01-12T10:11:47.582Z,1.10
2019-01-12T10:14:19.301Z,1.20
2019-01-12T10:16:51.058Z,1.30
2019-01-12T10:19:21.659Z,1.40
2019-01-12T10:21:52.630Z,1.50
2019-01-12T10:24:24.024Z,1.70
2019-01-12T10:26:58.500Z,1.70
2019-01-12T10:29:26.766Z,1.70
2019-01-12T10:32:01.208Z,1.80
2019-01-12T10:34:32.132Z,1.80
2019-01-12T10:37:04.389Z,1.80
2019-01-12T10:39:35.676Z,1.80
2019-01-12T10:42:09.015Z,1.80
2019-01-12T10:44:40.098Z,1.90
2019-01-12T10:47:11.031Z,1.80
2019-01-12T10:49:41.868Z,1.80
2019-01-12T10:52:12.409Z,1.90
2019-01-12T10:54:43.018Z,1.80
2019-01-12T10:57:20.021Z,1.70
2019-01-12T10:59:49.518Z,1.70
2019-01-12T11:02:23.131Z,1.80
2019-01-12T11:04:55.526Z,1.80
2019-01-12T11:07:26.316Z,1.80
2019-01-12T11:09:56.968Z,1.80
2019-01-12T11:12:32.287Z,1.80
2019-01-12T11:15:03.834Z,1.80
2019-01-12T11:17:34.475Z,1.90
2019-01-12T11:20:09.364Z,2.00
2019-01-12T11:22:40.058Z,2.10
2019-01-12T11:25:14.986Z,2.10
2019-01-12T11:27:45.699Z,2.20
2019-01-12T11:30:19.661Z,2.30
2019-01-12T11:32:51.110Z,2.30
2019-01-12T11:35:22.859Z,2.40
2019-01-12T11:37:53.769Z,2.40
2019-01-12T11:40:24.469Z,2.40
2019-01-12T11:42:55.109Z,2.40
2019-01-12T11:45:26.132Z,2.50
2019-01-12T11:47:56.700Z,2.50
2019-01-12T11:50:27.626Z,2.50
2019-01-12T11:52:58.972Z,2.40
2019-01-12T11:55:30.312Z,2.40
2019-01-12T11:58:00.928Z,2.40
2019-01-12T12:00:34.911Z,2.40
2019-01-12T12:03:05.313Z,2.40
2019-01-12T12:05:36.532Z,2.30
2019-01-12T12:08:07.824Z,2.20
2019-01-12T12:10:38.414Z,2.20
2019-01-12T12:13:10.458Z,2.20
2019-01-12T12:15:41.765Z,2.10
2019-01-12T12:18:13.235Z,2.10
2019-01-12T12:20:44.404Z,2.20
2019-01-12T12:23:15.366Z,2.40
2019-01-12T12:25:46.854Z,2.20
2019-01-12T12:28:18.335Z,2.20
2019-01-12T12:30:49.090Z,2.20
2019-01-12T12:33:20.805Z,2.20
2019-01-12T12:35:51.438Z,2.10
2019-01-12T12:38:24.838Z,2.10
2019-01-12T12:40:55.386Z,2.00
2019-01-12T12:43:26.210Z,2.10
2019-01-12T12:45:56.787Z,2.10
2019-01-12T12:48:27.290Z,2.10
2019-01-12T12:50:58.019Z,2.20
2019-01-12T12:53:28.845Z,2.30
2019-01-12T12:55:59.649Z,2.30
2019-01-12T12:58:30.718Z,2.30
2019-01-12T13:01:04.400Z,2.20
2019-01-12T13:03:35.173Z,2.30
2019-01-12T13:06:06.154Z,2.30
2019-01-12T13:08:38.356Z,2.30
2019-01-12T13:11:08.945Z,2.30
2019-01-12T13:13:39.558Z,2.30
2019-01-12T13:16:11.485Z,2.40
2019-01-12T13:18:43.236Z,2.40
2019-01-12T13:21:15.588Z,2.30
2019-01-12T13:23:46.795Z,2.40
2019-01-12T13:26:21.401Z,2.40
2019-01-12T13:28:51.880Z,2.40
2019-01-12T13:31:24.437Z,2.30
2019-01-12T13:33:56.813Z,2.30
2019-01-12T13:36:30.712Z,2.20
2019-01-12T13:39:01.353Z,2.30
2019-01-12T13:41:31.924Z,2.20
2019-01-12T13:44:02.500Z,2.10
2019-01-12T13:46:34.421Z,2.10
2019-01-12T13:49:04.996Z,2.10
2019-01-12T13:51:36.764Z,2.10
2019-01-12T13:54:11.781Z,2.10
2019-01-12T13:56:42.483Z,2.30
2019-01-12T13:59:14.008Z,2.10
2019-01-12T14:01:44.624Z,2.10
2019-01-12T14:04:15.266Z,2.10
2019-01-12T14:06:45.828Z,2.00
2019-01-12T14:09:16.458Z,2.00
2019-01-12T14:11:47.136Z,2.00
2019-01-12T14:14:17.724Z,2.00
2019-01-12T14:16:49.052Z,2.00
2019-01-12T14:19:19.681Z,2.00
2019-01-12T14:21:50.536Z,2.10
2019-01-12T14:24:22.708Z,2.10
2019-01-12T14:26:54.129Z,2.00
2019-01-12T14:29:24.773Z,1.90
2019-01-12T14:31:55.768Z,1.90
2019-01-12T14:34:26.410Z,2.10
2019-01-12T14:37:00.850Z,1.90
2019-01-12T14:39:32.501Z,2.10
2019-01-12T14:42:03.181Z,1.90
2019-01-12T14:44:33.909Z,1.90
2019-01-12T14:47:04.562Z,1.90
2019-01-12T14:49:35.818Z,1.90
2019-01-12T14:52:07.603Z,1.90
2019-01-12T14:54:39.156Z,1.80
2019-01-12T14:57:13.103Z,1.80
2019-01-12T14:59:47.459Z,1.70
2019-01-12T15:02:23.141Z,1.70
2019-01-12T15:04:59.217Z,1.60
2019-01-12T15:07:32.523Z,1.60
2019-01-12T15:10:07.869Z,1.60
2019-01-12T15:12:39.218Z,1.70
2019-01-12T15:15:18.660Z,1.60
2019-01-12T15:17:51.042Z,1.60
2019-01-12T15:20:29.836Z,1.60
2019-01-12T15:23:00.810Z,1.60
2019-01-12T15:25:33.206Z,1.60
2019-01-12T15:28:09.323Z,1.60
2019-01-12T15:30:40.955Z,1.60
2019-01-12T15:33:11.839Z,1.60
2019-01-12T15:35:42.799Z,1.60
2019-01-12T15:38:17.351Z,1.60
2019-01-12T15:40:48.756Z,1.60
2019-01-12T15:43:19.457Z,1.60
2019-01-12T15:45:50.103Z,1.50
2019-01-12T15:48:22.499Z,1.60
2019-01-12T15:50:55.829Z,1.50
2019-01-12T15:53:26.384Z,1.50
2019-01-12T15:55:57.020Z,1.60
2019-01-12T15:58:27.488Z,1.50
2019-01-12T16:00:58.212Z,1.50
2019-01-12T16:03:28.790Z,1.50
2019-01-12T16:05:59.321Z,1.50
2019-01-12T16:08:33.794Z,1.50
2019-01-12T16:11:04.819Z,1.50
2019-01-12T16:13:35.400Z,1.50
2019-01-12T16:16:10.134Z,1.50
2019-01-12T16:18:40.751Z,1.50
2019-01-12T16:21:20.703Z,1.60
2019-01-12T16:23:53.758Z,1.50
2019-01-12T16:26:24.406Z,1.50
2019-01-12T16:28:55.784Z,1.60
2019-01-12T16:31:28.282Z,1.50
2019-01-12T16:34:00.630Z,1.50
2019-01-12T16:36:31.827Z,1.50
2019-01-12T16:41:41.342Z,1.50
2019-01-12T16:44:12.226Z,1.50
2019-01-12T16:46:42.898Z,1.50
2019-01-12T16:49:13.551Z,1.50
2019-01-12T16:51:45.028Z,1.50
2019-01-12T16:54:17.157Z,1.50
2019-01-12T16:56:50.028Z,1.50
2019-01-12T16:59:20.301Z,1.50
2019-01-12T17:01:56.014Z,1.50
2019-01-12T17:04:27.561Z,1.50
2019-01-12T17:07:01.642Z,1.50
2019-01-12T17:09:32.724Z,1.70
2019-01-12T17:12:03.522Z,1.50
2019-01-12T17:14:34.633Z,1.50
2019-01-12T17:17:05.343Z,1.50
2019-01-12T17:19:35.989Z,1.50
2019-01-12T17:22:06.876Z,1.50
2019-01-12T17:24:43.395Z,1.40
2019-01-12T17:27:14.443Z,1.60
2019-01-12T17:29:46.136Z,1.70
2019-01-12T17:32:23.498Z,1.70
2019-01-12T17:34:55.414Z,1.60
2019-01-12T17:37:26.025Z,1.60
2019-01-12T17:39:58.190Z,1.60
2019-01-12T17:42:28.923Z,1.60
2019-01-12T17:44:59.498Z,1.50
2019-01-12T17:47:30.113Z,1.50
2019-01-12T17:50:00.813Z,1.50
2019-01-12T17:52:31.614Z,1.50
2019-01-12T17:55:09.067Z,1.50
2019-01-12T17:57:42.092Z,1.50
2019-01-12T18:00:21.404Z,1.50
2019-01-12T18:02:52.035Z,1.60
2019-01-12T18:05:23.285Z,1.60
2019-01-12T18:07:54.130Z,1.60
2019-01-12T18:10:26.086Z,1.50
2019-01-12T18:12:57.183Z,1.60
2019-01-12T18:15:32.081Z,1.60
2019-01-12T18:18:02.977Z,1.60
2019-01-12T18:20:33.637Z,1.60
2019-01-12T18:23:05.766Z,1.60
2019-01-12T18:25:36.551Z,1.60
2019-01-12T18:28:07.513Z,1.60
2019-01-12T18:30:39.982Z,1.60
2019-01-12T18:33:13.326Z,1.60
2019-01-12T18:35:43.714Z,1.60
2019-01-12T18:38:14.350Z,1.60
2019-01-12T18:40:47.957Z,1.60
2019-01-12T18:43:18.648Z,1.70
2019-01-12T18:45:49.591Z,1.70
2019-01-12T18:48:20.503Z,1.60
2019-01-12T18:50:51.711Z,1.80
2019-01-12T18:53:22.308Z,1.70
2019-01-12T18:55:53.895Z,1.60
2019-01-12T18:58:24.810Z,1.60
2019-01-12T19:00:55.698Z,1.60
2019-01-12T19:03:26.321Z,1.60
2019-01-12T19:05:56.998Z,1.70
2019-01-12T19:08:27.593Z,1.70
2019-01-12T19:11:00.653Z,1.60
2019-01-12T19:13:31.174Z,1.60
2019-01-12T19:16:01.815Z,1.60
2019-01-12T19:18:32.445Z,1.60
2019-01-12T19:21:03.857Z,1.70
2019-01-12T19:23:34.435Z,1.70
2019-01-12T19:26:05.230Z,1.70
2019-01-12T19:28:35.747Z,1.60
2019-01-12T19:31:07.201Z,1.60
2019-01-12T19:33:37.833Z,1.60
2019-01-12T19:36:10.076Z,1.60
2019-01-12T19:38:41.045Z,1.60
2019-01-12T19:41:11.547Z,1.60
2019-01-12T19:43:45.318Z,1.60
2019-01-12T19:46:18.853Z,1.70
2019-01-12T19:48:52.584Z,1.60
2019-01-12T19:51:26.592Z,1.70
2019-01-12T19:53:57.535Z,1.70
2019-01-12T19:56:28.138Z,1.70
2019-01-12T19:58:58.936Z,1.70
2019-01-12T20:01:29.742Z,1.70
2019-01-12T20:04:00.268Z,1.70
2019-01-12T20:06:30.911Z,1.70
2019-01-12T20:09:01.550Z,1.70
2019-01-12T20:11:32.298Z,1.70
2019-01-12T20:14:02.981Z,1.70
2019-01-12T20:16:33.693Z,1.80
2019-01-12T20:19:04.358Z,1.70
2019-01-12T20:21:36.018Z,1.70
2019-01-12T20:24:08.236Z,1.70
2019-01-12T20:26:39.088Z,1.70
2019-01-12T20:29:11.764Z,1.70
2019-01-12T20:31:59.376Z,1.70
2019-01-12T20:34:35.198Z,1.70
2019-01-12T20:37:23.500Z,1.70
2019-01-12T20:40:19.160Z,1.70
2019-01-12T20:43:11.535Z,1.80
2019-01-12T20:45:55.131Z,1.70
2019-01-12T20:48:35.989Z,1.80
2019-01-12T20:51:43.847Z,1.70
2019-01-12T20:54:46.425Z,1.80
2019-01-12T20:57:40.256Z,1.80
2019-01-12T21:00:33.625Z,1.90
2019-01-12T21:03:26.219Z,1.80
2019-01-12T21:06:02.467Z,2.10
2019-01-12T21:08:43.680Z,1.80
2019-01-12T21:11:45.419Z,1.80
2019-01-12T21:14:38.621Z,1.80
2019-01-12T21:17:09.730Z,1.80
2019-01-12T21:19:47.748Z,1.80
2019-01-12T21:22:13.078Z,2.10
2019-01-12T21:24:46.459Z,1.90
2019-01-12T21:27:17.088Z,1.90
2019-01-12T21:29:47.825Z,1.80
2019-01-12T21:32:19.237Z,1.90
2019-01-12T21:34:50.127Z,1.90
2019-01-12T21:37:20.712Z,1.90
2019-01-12T21:39:51.493Z,1.80
2019-01-12T21:42:22.154Z,1.80
2019-01-12T21:44:54.639Z,1.80
2019-01-12T21:47:25.325Z,1.70
2019-01-12T21:49:55.884Z,1.80
2019-01-12T21:52:26.612Z,1.80
2019-01-12T21:54:57.490Z,1.80
2019-01-12T21:57:29.878Z,1.80
2019-01-12T22:00:01.125Z,1.90
2019-01-12T22:02:32.132Z,1.90
2019-01-12T22:05:03.142Z,1.90
2019-01-12T22:07:33.719Z,2.00
2019-01-12T22:10:06.990Z,1.90
2019-01-12T22:12:37.567Z,1.90
2019-01-12T22:15:13.311Z,1.90
2019-01-12T22:17:43.938Z,1.90
2019-01-12T22:20:17.111Z,1.80
2019-01-12T22:22:47.740Z,1.80
2019-01-12T22:25:18.682Z,1.80
2019-01-12T22:27:49.654Z,1.70
2019-01-12T22:30:23.459Z,1.70
2019-01-12T22:32:54.920Z,1.70
2019-01-12T22:35:27.057Z,1.70
2019-01-12T22:38:03.093Z,1.80
2019-01-12T22:40:32.809Z,1.70
2019-01-12T22:43:03.479Z,1.80
2019-01-12T22:45:34.171Z,1.80
2019-01-12T22:48:05.119Z,1.80
2019-01-12T22:50:35.787Z,1.80
2019-01-12T22:53:08.843Z,1.90
2019-01-12T22:55:39.312Z,1.90
2019-01-12T22:58:10.321Z,1.80
2019-01-12T23:00:51.523Z,1.80
2019-01-12T23:03:22.807Z,1.80
2019-01-12T23:05:53.785Z,1.80
2019-01-12T23:08:24.556Z,1.90
2019-01-12T23:10:55.177Z,1.80
2019-01-12T23:13:26.977Z,1.80
2019-01-12T23:15:57.581Z,1.70
2019-01-12T23:18:28.397Z,1.80
2019-01-12T23:20:59.071Z,1.70
2019-01-12T23:23:29.948Z,1.70
2019-01-12T23:26:00.576Z,1.60
2019-01-12T23:28:32.070Z,1.60
2019-01-12T23:31:02.758Z,1.70
2019-01-12T23:33:37.771Z,1.60
2019-01-12T23:36:10.663Z,1.50
2019-01-12T23:38:41.082Z,1.70
2019-01-12T23:41:11.689Z,1.60
2019-01-12T23:43:42.806Z,1.60
2019-01-12T23:46:13.481Z,1.60
2019-01-12T23:48:47.217Z,1.60
2019-01-12T23:51:18.137Z,1.50
2019-01-12T23:53:48.750Z,1.60
2019-01-12T23:56:19.369Z,1.50
2019-01-12T23:58:53.552Z,1.50
